sensor_id;sensor_type;location;lat;lon;timestamp;temperature;humidity
51793;DHT22;37850;53.178;6.376;2024-01-30T00:01:50;6.70;99.90
51793;DHT22;37850;53.178;6.376;2024-01-30T00:04:19;7.30;99.90
51793;DHT22;37850;53.178;6.376;2024-01-30T00:06:45;7.00;99.90
51793;DHT22;37850;53.178;6.376;2024-01-30T00:09:10;6.70;99.90
51793;DHT22;37850;53.178;6.376;2024-01-30T00:11:39;6.70;99.90
51793;DHT22;37850;53.178;6.376;2024-01-30T00:14:05;6.90;99.90
51793;DHT22;37850;53.178;6.376;2024-01-30T00:16:31;7.00;99.90
51793;DHT22;37850;53.178;6.376;2024-01-30T00:18:58;6.60;99.90
51793;DHT22;37850;53.178;6.376;2024-01-30T00:21:25;6.60;99.90
51793;DHT22;37850;53.178;6.376;2024-01-30T00:23:54;6.60;99.90
51793;DHT22;37850;53.178;6.376;2024-01-30T00:26:19;6.60;99.90
51793;DHT22;37850;53.178;6.376;2024-01-30T00:28:46;6.60;99.90
51793;DHT22;37850;53.178;6.376;2024-01-30T00:31:11;6.60;99.90
51793;DHT22;37850;53.178;6.376;2024-01-30T00:33:38;6.50;99.90
51793;DHT22;37850;53.178;6.376;2024-01-30T00:36:05;6.50;99.90
51793;DHT22;37850;53.178;6.376;2024-01-30T00:38:32;6.50;99.90
51793;DHT22;37850;53.178;6.376;2024-01-30T00:40:58;6.50;99.90
51793;DHT22;37850;53.178;6.376;2024-01-30T00:43:24;6.50;99.90
51793;DHT22;37850;53.178;6.376;2024-01-30T00:45:52;6.50;99.90
51793;DHT22;37850;53.178;6.376;2024-01-30T00:48:18;6.40;99.90
51793;DHT22;37850;53.178;6.376;2024-01-30T00:50:44;6.40;99.90
51793;DHT22;37850;53.178;6.376;2024-01-30T00:53:10;6.50;99.90
51793;DHT22;37850;53.178;6.376;2024-01-30T00:55:36;6.40;99.90
51793;DHT22;37850;53.178;6.376;2024-01-30T00:58:02;6.40;99.90
51793;DHT22;37850;53.178;6.376;2024-01-30T01:00:28;6.40;99.90
51793;DHT22;37850;53.178;6.376;2024-01-30T01:02:58;6.40;99.90
51793;DHT22;37850;53.178;6.376;2024-01-30T01:05:24;6.40;99.90
51793;DHT22;37850;53.178;6.376;2024-01-30T01:07:51;6.40;99.90
51793;DHT22;37850;53.178;6.376;2024-01-30T01:10:17;6.40;99.90
51793;DHT22;37850;53.178;6.376;2024-01-30T01:12:45;6.30;99.90
51793;DHT22;37850;53.178;6.376;2024-01-30T01:15:12;6.30;99.90
51793;DHT22;37850;53.178;6.376;2024-01-30T01:17:38;6.30;99.90
51793;DHT22;37850;53.178;6.376;2024-01-30T01:20:05;6.30;99.90
51793;DHT22;37850;53.178;6.376;2024-01-30T01:22:32;6.30;99.90
51793;DHT22;37850;53.178;6.376;2024-01-30T01:24:58;6.70;99.90
51793;DHT22;37850;53.178;6.376;2024-01-30T01:27:24;6.30;99.90
51793;DHT22;37850;53.178;6.376;2024-01-30T01:29:51;6.30;99.90
51793;DHT22;37850;53.178;6.376;2024-01-30T01:32:17;6.30;99.90
51793;DHT22;37850;53.178;6.376;2024-01-30T01:34:43;6.30;99.90
51793;DHT22;37850;53.178;6.376;2024-01-30T01:37:08;6.20;99.90
51793;DHT22;37850;53.178;6.376;2024-01-30T01:39:34;6.20;99.90
51793;DHT22;37850;53.178;6.376;2024-01-30T01:42:00;6.20;99.90
51793;DHT22;37850;53.178;6.376;2024-01-30T01:44:27;6.20;99.90
51793;DHT22;37850;53.178;6.376;2024-01-30T01:46:53;6.20;99.90
51793;DHT22;37850;53.178;6.376;2024-01-30T01:49:20;6.20;99.90
51793;DHT22;37850;53.178;6.376;2024-01-30T01:51:49;6.20;99.90
51793;DHT22;37850;53.178;6.376;2024-01-30T01:54:19;6.20;99.90
51793;DHT22;37850;53.178;6.376;2024-01-30T01:56:45;6.20;99.90
51793;DHT22;37850;53.178;6.376;2024-01-30T01:59:11;6.20;99.90
51793;DHT22;37850;53.178;6.376;2024-01-30T02:01:37;6.30;99.90
51793;DHT22;37850;53.178;6.376;2024-01-30T02:04:04;6.20;99.90
51793;DHT22;37850;53.178;6.376;2024-01-30T02:06:29;6.20;99.90
51793;DHT22;37850;53.178;6.376;2024-01-30T02:08:55;6.20;99.90
51793;DHT22;37850;53.178;6.376;2024-01-30T02:11:22;6.20;99.90
51793;DHT22;37850;53.178;6.376;2024-01-30T02:13:49;6.20;99.90
51793;DHT22;37850;53.178;6.376;2024-01-30T02:16:16;6.20;99.90
51793;DHT22;37850;53.178;6.376;2024-01-30T02:18:44;6.20;99.90
51793;DHT22;37850;53.178;6.376;2024-01-30T02:21:17;6.30;99.90
51793;DHT22;37850;53.178;6.376;2024-01-30T02:23:49;6.20;99.90
51793;DHT22;37850;53.178;6.376;2024-01-30T02:26:16;6.20;99.90
51793;DHT22;37850;53.178;6.376;2024-01-30T02:28:42;6.20;99.90
51793;DHT22;37850;53.178;6.376;2024-01-30T02:31:07;6.60;99.90
51793;DHT22;37850;53.178;6.376;2024-01-30T02:33:33;6.20;99.90
51793;DHT22;37850;53.178;6.376;2024-01-30T02:35:59;6.20;99.90
51793;DHT22;37850;53.178;6.376;2024-01-30T02:38:25;6.20;99.90
51793;DHT22;37850;53.178;6.376;2024-01-30T02:40:52;6.20;99.90
51793;DHT22;37850;53.178;6.376;2024-01-30T02:43:18;6.20;99.90
51793;DHT22;37850;53.178;6.376;2024-01-30T02:45:43;6.30;99.90
51793;DHT22;37850;53.178;6.376;2024-01-30T02:48:09;6.50;99.90
51793;DHT22;37850;53.178;6.376;2024-01-30T02:50:35;6.30;99.90
51793;DHT22;37850;53.178;6.376;2024-01-30T02:53:00;6.30;99.90
51793;DHT22;37850;53.178;6.376;2024-01-30T02:55:26;6.40;99.90
51793;DHT22;37850;53.178;6.376;2024-01-30T02:57:52;6.40;99.90
51793;DHT22;37850;53.178;6.376;2024-01-30T03:00:19;6.40;99.90
51793;DHT22;37850;53.178;6.376;2024-01-30T03:02:45;6.40;99.90
51793;DHT22;37850;53.178;6.376;2024-01-30T03:05:11;6.40;99.90
51793;DHT22;37850;53.178;6.376;2024-01-30T03:07:36;6.40;99.90
51793;DHT22;37850;53.178;6.376;2024-01-30T03:10:04;6.40;99.90
51793;DHT22;37850;53.178;6.376;2024-01-30T03:12:29;6.40;99.90
51793;DHT22;37850;53.178;6.376;2024-01-30T03:14:55;6.40;99.90
51793;DHT22;37850;53.178;6.376;2024-01-30T03:17:21;6.40;99.90
51793;DHT22;37850;53.178;6.376;2024-01-30T03:19:47;6.40;99.90
51793;DHT22;37850;53.178;6.376;2024-01-30T03:22:13;6.60;99.90
51793;DHT22;37850;53.178;6.376;2024-01-30T03:24:38;6.40;99.90
51793;DHT22;37850;53.178;6.376;2024-01-30T03:27:04;6.40;99.90
51793;DHT22;37850;53.178;6.376;2024-01-30T03:29:30;6.40;99.90
51793;DHT22;37850;53.178;6.376;2024-01-30T03:31:55;6.40;99.90
51793;DHT22;37850;53.178;6.376;2024-01-30T03:34:21;6.40;99.90
51793;DHT22;37850;53.178;6.376;2024-01-30T03:36:47;6.60;99.90
51793;DHT22;37850;53.178;6.376;2024-01-30T03:39:12;6.50;99.90
51793;DHT22;37850;53.178;6.376;2024-01-30T03:41:38;6.50;99.90
51793;DHT22;37850;53.178;6.376;2024-01-30T03:44:07;6.50;99.90
51793;DHT22;37850;53.178;6.376;2024-01-30T03:46:32;6.50;99.90
51793;DHT22;37850;53.178;6.376;2024-01-30T03:48:58;6.50;99.90
51793;DHT22;37850;53.178;6.376;2024-01-30T03:51:24;6.60;99.90
51793;DHT22;37850;53.178;6.376;2024-01-30T03:53:51;6.50;99.90
51793;DHT22;37850;53.178;6.376;2024-01-30T03:56:16;6.60;99.90
51793;DHT22;37850;53.178;6.376;2024-01-30T03:58:42;6.50;99.90
51793;DHT22;37850;53.178;6.376;2024-01-30T04:01:14;6.60;99.90
51793;DHT22;37850;53.178;6.376;2024-01-30T04:03:41;6.50;99.90
51793;DHT22;37850;53.178;6.376;2024-01-30T04:06:07;6.60;99.90
51793;DHT22;37850;53.178;6.376;2024-01-30T04:08:33;6.60;99.90
51793;DHT22;37850;53.178;6.376;2024-01-30T04:10:58;6.60;99.90
51793;DHT22;37850;53.178;6.376;2024-01-30T04:13:24;6.60;99.90
51793;DHT22;37850;53.178;6.376;2024-01-30T04:15:50;6.60;99.90
51793;DHT22;37850;53.178;6.376;2024-01-30T04:18:16;5.90;99.90
51793;DHT22;37850;53.178;6.376;2024-01-30T04:20:42;6.60;99.90
51793;DHT22;37850;53.178;6.376;2024-01-30T04:23:07;6.60;99.90
51793;DHT22;37850;53.178;6.376;2024-01-30T04:25:33;6.60;99.90
51793;DHT22;37850;53.178;6.376;2024-01-30T04:27:59;6.70;99.90
51793;DHT22;37850;53.178;6.376;2024-01-30T04:30:24;6.70;99.90
51793;DHT22;37850;53.178;6.376;2024-01-30T04:32:50;6.70;99.90
51793;DHT22;37850;53.178;6.376;2024-01-30T04:35:16;6.70;99.90
51793;DHT22;37850;53.178;6.376;2024-01-30T04:37:42;6.70;99.90
51793;DHT22;37850;53.178;6.376;2024-01-30T04:40:08;6.70;99.90
51793;DHT22;37850;53.178;6.376;2024-01-30T04:42:35;6.70;99.90
51793;DHT22;37850;53.178;6.376;2024-01-30T04:45:00;6.70;99.90
51793;DHT22;37850;53.178;6.376;2024-01-30T04:47:26;6.70;99.90
51793;DHT22;37850;53.178;6.376;2024-01-30T04:49:52;6.90;99.90
51793;DHT22;37850;53.178;6.376;2024-01-30T04:52:17;6.70;99.90
51793;DHT22;37850;53.178;6.376;2024-01-30T04:54:43;6.70;99.90
51793;DHT22;37850;53.178;6.376;2024-01-30T04:57:09;6.70;99.90
51793;DHT22;37850;53.178;6.376;2024-01-30T04:59:37;6.80;99.90
51793;DHT22;37850;53.178;6.376;2024-01-30T05:02:03;6.80;99.90
51793;DHT22;37850;53.178;6.376;2024-01-30T05:04:28;6.80;99.90
51793;DHT22;37850;53.178;6.376;2024-01-30T05:06:54;7.00;99.90
51793;DHT22;37850;53.178;6.376;2024-01-30T05:09:22;6.80;99.90
51793;DHT22;37850;53.178;6.376;2024-01-30T05:11:48;6.80;99.90
51793;DHT22;37850;53.178;6.376;2024-01-30T05:14:14;6.80;99.90
51793;DHT22;37850;53.178;6.376;2024-01-30T05:16:40;6.80;99.90
51793;DHT22;37850;53.178;6.376;2024-01-30T05:19:12;6.80;99.90
51793;DHT22;37850;53.178;6.376;2024-01-30T05:21:38;6.90;99.90
51793;DHT22;37850;53.178;6.376;2024-01-30T05:24:04;7.00;99.90
51793;DHT22;37850;53.178;6.376;2024-01-30T05:26:30;6.90;99.90
51793;DHT22;37850;53.178;6.376;2024-01-30T05:28:56;6.90;99.90
51793;DHT22;37850;53.178;6.376;2024-01-30T05:31:22;6.90;99.90
51793;DHT22;37850;53.178;6.376;2024-01-30T05:33:47;6.90;99.90
51793;DHT22;37850;53.178;6.376;2024-01-30T05:36:13;6.90;99.90
51793;DHT22;37850;53.178;6.376;2024-01-30T05:38:39;6.90;99.90
51793;DHT22;37850;53.178;6.376;2024-01-30T05:41:05;7.30;99.90
51793;DHT22;37850;53.178;6.376;2024-01-30T05:43:31;6.90;99.90
51793;DHT22;37850;53.178;6.376;2024-01-30T05:45:56;6.90;99.90
51793;DHT22;37850;53.178;6.376;2024-01-30T05:48:22;7.20;99.90
51793;DHT22;37850;53.178;6.376;2024-01-30T05:50:48;6.90;99.90
51793;DHT22;37850;53.178;6.376;2024-01-30T05:53:14;6.90;99.90
51793;DHT22;37850;53.178;6.376;2024-01-30T05:55:40;7.00;99.90
51793;DHT22;37850;53.178;6.376;2024-01-30T05:58:05;7.00;99.90
51793;DHT22;37850;53.178;6.376;2024-01-30T06:00:31;7.00;99.90
51793;DHT22;37850;53.178;6.376;2024-01-30T06:02:57;7.00;99.90
51793;DHT22;37850;53.178;6.376;2024-01-30T06:05:23;7.00;99.90
51793;DHT22;37850;53.178;6.376;2024-01-30T06:07:49;7.10;99.90
51793;DHT22;37850;53.178;6.376;2024-01-30T06:10:14;7.00;99.90
51793;DHT22;37850;53.178;6.376;2024-01-30T06:12:40;7.00;99.90
51793;DHT22;37850;53.178;6.376;2024-01-30T06:15:06;7.30;99.90
51793;DHT22;37850;53.178;6.376;2024-01-30T06:17:32;7.00;99.90
51793;DHT22;37850;53.178;6.376;2024-01-30T06:19:58;7.10;99.90
51793;DHT22;37850;53.178;6.376;2024-01-30T06:22:25;7.10;99.90
51793;DHT22;37850;53.178;6.376;2024-01-30T06:24:53;7.10;99.90
51793;DHT22;37850;53.178;6.376;2024-01-30T06:27:19;7.00;99.90
51793;DHT22;37850;53.178;6.376;2024-01-30T06:29:44;7.20;99.90
51793;DHT22;37850;53.178;6.376;2024-01-30T06:32:10;7.10;99.90
51793;DHT22;37850;53.178;6.376;2024-01-30T06:34:36;7.50;99.90
51793;DHT22;37850;53.178;6.376;2024-01-30T06:37:02;7.20;99.90
51793;DHT22;37850;53.178;6.376;2024-01-30T06:39:27;7.20;99.90
51793;DHT22;37850;53.178;6.376;2024-01-30T06:41:53;7.20;99.90
51793;DHT22;37850;53.178;6.376;2024-01-30T06:44:19;7.20;99.90
51793;DHT22;37850;53.178;6.376;2024-01-30T06:46:45;7.20;99.90
51793;DHT22;37850;53.178;6.376;2024-01-30T06:49:10;7.30;99.90
51793;DHT22;37850;53.178;6.376;2024-01-30T06:51:36;7.30;99.90
51793;DHT22;37850;53.178;6.376;2024-01-30T06:54:02;7.60;99.90
51793;DHT22;37850;53.178;6.376;2024-01-30T06:56:28;7.30;99.90
51793;DHT22;37850;53.178;6.376;2024-01-30T06:58:54;7.30;99.90
51793;DHT22;37850;53.178;6.376;2024-01-30T07:01:19;7.30;99.90
51793;DHT22;37850;53.178;6.376;2024-01-30T07:03:45;7.90;99.90
51793;DHT22;37850;53.178;6.376;2024-01-30T07:06:11;6.80;99.90
51793;DHT22;37850;53.178;6.376;2024-01-30T07:08:37;7.30;99.90
51793;DHT22;37850;53.178;6.376;2024-01-30T07:11:05;7.80;99.90
51793;DHT22;37850;53.178;6.376;2024-01-30T07:13:31;7.30;99.90
51793;DHT22;37850;53.178;6.376;2024-01-30T07:15:57;7.30;99.90
51793;DHT22;37850;53.178;6.376;2024-01-30T07:18:23;7.30;99.90
51793;DHT22;37850;53.178;6.376;2024-01-30T07:20:49;7.30;99.90
51793;DHT22;37850;53.178;6.376;2024-01-30T07:23:16;7.30;99.90
51793;DHT22;37850;53.178;6.376;2024-01-30T07:25:46;7.30;99.90
51793;DHT22;37850;53.178;6.376;2024-01-30T07:28:14;7.90;99.90
51793;DHT22;37850;53.178;6.376;2024-01-30T07:30:43;7.30;99.90
51793;DHT22;37850;53.178;6.376;2024-01-30T07:33:09;7.30;99.90
51793;DHT22;37850;53.178;6.376;2024-01-30T07:35:36;7.30;99.90
51793;DHT22;37850;53.178;6.376;2024-01-30T07:38:02;7.40;99.90
51793;DHT22;37850;53.178;6.376;2024-01-30T07:40:27;7.40;99.90
51793;DHT22;37850;53.178;6.376;2024-01-30T07:42:54;7.30;99.90
51793;DHT22;37850;53.178;6.376;2024-01-30T07:45:20;7.40;99.90
51793;DHT22;37850;53.178;6.376;2024-01-30T07:47:51;7.40;99.90
51793;DHT22;37850;53.178;6.376;2024-01-30T07:50:17;7.40;99.90
51793;DHT22;37850;53.178;6.376;2024-01-30T07:52:43;7.40;99.90
51793;DHT22;37850;53.178;6.376;2024-01-30T07:55:09;7.40;99.90
51793;DHT22;37850;53.178;6.376;2024-01-30T07:57:35;7.40;99.90
51793;DHT22;37850;53.178;6.376;2024-01-30T08:00:04;7.40;99.90
51793;DHT22;37850;53.178;6.376;2024-01-30T08:02:32;7.40;99.90
51793;DHT22;37850;53.178;6.376;2024-01-30T08:04:58;7.40;99.90
51793;DHT22;37850;53.178;6.376;2024-01-30T08:07:24;7.50;99.90
51793;DHT22;37850;53.178;6.376;2024-01-30T08:09:53;7.50;99.90
51793;DHT22;37850;53.178;6.376;2024-01-30T08:12:18;7.50;99.90
51793;DHT22;37850;53.178;6.376;2024-01-30T08:14:44;7.50;99.90
51793;DHT22;37850;53.178;6.376;2024-01-30T08:17:10;7.60;99.90
51793;DHT22;37850;53.178;6.376;2024-01-30T08:19:35;7.50;99.90
51793;DHT22;37850;53.178;6.376;2024-01-30T08:22:01;7.50;99.90
51793;DHT22;37850;53.178;6.376;2024-01-30T08:24:27;7.50;99.90
51793;DHT22;37850;53.178;6.376;2024-01-30T08:26:53;8.00;99.90
51793;DHT22;37850;53.178;6.376;2024-01-30T08:29:18;7.50;99.90
51793;DHT22;37850;53.178;6.376;2024-01-30T08:31:44;7.60;99.90
51793;DHT22;37850;53.178;6.376;2024-01-30T08:34:11;7.50;99.90
51793;DHT22;37850;53.178;6.376;2024-01-30T08:36:37;8.00;99.90
51793;DHT22;37850;53.178;6.376;2024-01-30T08:39:03;7.60;99.90
51793;DHT22;37850;53.178;6.376;2024-01-30T08:41:30;7.60;99.90
51793;DHT22;37850;53.178;6.376;2024-01-30T08:43:56;7.70;99.90
51793;DHT22;37850;53.178;6.376;2024-01-30T08:46:22;7.70;99.90
51793;DHT22;37850;53.178;6.376;2024-01-30T08:48:47;7.70;99.90
51793;DHT22;37850;53.178;6.376;2024-01-30T08:51:13;7.70;99.90
51793;DHT22;37850;53.178;6.376;2024-01-30T08:53:40;7.70;99.90
51793;DHT22;37850;53.178;6.376;2024-01-30T08:56:06;7.70;99.90
51793;DHT22;37850;53.178;6.376;2024-01-30T08:58:33;7.80;99.90
51793;DHT22;37850;53.178;6.376;2024-01-30T09:00:58;7.80;99.90
51793;DHT22;37850;53.178;6.376;2024-01-30T09:03:24;7.80;99.90
51793;DHT22;37850;53.178;6.376;2024-01-30T09:05:51;7.90;99.90
51793;DHT22;37850;53.178;6.376;2024-01-30T09:08:16;7.90;99.90
51793;DHT22;37850;53.178;6.376;2024-01-30T09:10:42;7.90;99.90
51793;DHT22;37850;53.178;6.376;2024-01-30T09:13:08;8.00;99.90
51793;DHT22;37850;53.178;6.376;2024-01-30T09:15:34;8.00;99.90
51793;DHT22;37850;53.178;6.376;2024-01-30T09:18:00;8.00;99.90
51793;DHT22;37850;53.178;6.376;2024-01-30T09:20:26;8.10;99.90
51793;DHT22;37850;53.178;6.376;2024-01-30T09:22:52;8.10;99.90
51793;DHT22;37850;53.178;6.376;2024-01-30T09:25:18;8.20;99.90
51793;DHT22;37850;53.178;6.376;2024-01-30T09:27:44;8.20;99.90
51793;DHT22;37850;53.178;6.376;2024-01-30T09:30:10;8.60;99.90
51793;DHT22;37850;53.178;6.376;2024-01-30T09:32:36;8.30;99.90
51793;DHT22;37850;53.178;6.376;2024-01-30T09:35:01;8.40;99.90
51793;DHT22;37850;53.178;6.376;2024-01-30T09:37:27;8.40;99.90
51793;DHT22;37850;53.178;6.376;2024-01-30T09:39:53;8.50;99.90
51793;DHT22;37850;53.178;6.376;2024-01-30T09:44:51;8.50;99.90
51793;DHT22;37850;53.178;6.376;2024-01-30T09:47:18;9.10;99.90
51793;DHT22;37850;53.178;6.376;2024-01-30T09:49:44;8.60;99.90
51793;DHT22;37850;53.178;6.376;2024-01-30T09:52:11;8.60;99.90
51793;DHT22;37850;53.178;6.376;2024-01-30T09:54:38;8.70;99.90
51793;DHT22;37850;53.178;6.376;2024-01-30T09:57:04;8.60;99.90
51793;DHT22;37850;53.178;6.376;2024-01-30T09:59:31;8.70;99.90
51793;DHT22;37850;53.178;6.376;2024-01-30T10:01:57;8.70;99.90
51793;DHT22;37850;53.178;6.376;2024-01-30T10:04:23;8.70;99.90
51793;DHT22;37850;53.178;6.376;2024-01-30T10:06:50;8.80;99.90
51793;DHT22;37850;53.178;6.376;2024-01-30T10:09:16;8.80;99.90
51793;DHT22;37850;53.178;6.376;2024-01-30T10:11:42;8.80;99.90
51793;DHT22;37850;53.178;6.376;2024-01-30T10:14:08;8.90;99.90
51793;DHT22;37850;53.178;6.376;2024-01-30T10:16:34;8.90;99.90
51793;DHT22;37850;53.178;6.376;2024-01-30T10:19:00;8.90;99.90
51793;DHT22;37850;53.178;6.376;2024-01-30T10:21:26;8.90;99.90
51793;DHT22;37850;53.178;6.376;2024-01-30T10:23:52;8.90;99.90
51793;DHT22;37850;53.178;6.376;2024-01-30T10:26:18;9.00;99.90
51793;DHT22;37850;53.178;6.376;2024-01-30T10:28:44;9.00;99.90
51793;DHT22;37850;53.178;6.376;2024-01-30T10:31:10;9.00;99.90
51793;DHT22;37850;53.178;6.376;2024-01-30T10:33:38;9.00;99.90
51793;DHT22;37850;53.178;6.376;2024-01-30T10:36:05;9.00;99.90
51793;DHT22;37850;53.178;6.376;2024-01-30T10:38:32;9.00;99.90
51793;DHT22;37850;53.178;6.376;2024-01-30T10:41:00;9.00;99.90
51793;DHT22;37850;53.178;6.376;2024-01-30T10:43:35;9.10;99.90
51793;DHT22;37850;53.178;6.376;2024-01-30T10:46:12;9.10;99.90
51793;DHT22;37850;53.178;6.376;2024-01-30T10:48:43;9.10;99.90
51793;DHT22;37850;53.178;6.376;2024-01-30T10:51:11;9.20;99.90
51793;DHT22;37850;53.178;6.376;2024-01-30T10:53:38;9.20;99.90
51793;DHT22;37850;53.178;6.376;2024-01-30T10:56:05;9.30;99.90
51793;DHT22;37850;53.178;6.376;2024-01-30T10:58:31;9.30;99.90
51793;DHT22;37850;53.178;6.376;2024-01-30T11:00:57;9.40;99.90
51793;DHT22;37850;53.178;6.376;2024-01-30T11:03:24;9.40;99.90
51793;DHT22;37850;53.178;6.376;2024-01-30T11:05:50;9.40;99.90
51793;DHT22;37850;53.178;6.376;2024-01-30T11:08:25;9.50;99.90
51793;DHT22;37850;53.178;6.376;2024-01-30T11:10:56;9.50;99.90
51793;DHT22;37850;53.178;6.376;2024-01-30T11:13:26;9.60;99.90
51793;DHT22;37850;53.178;6.376;2024-01-30T11:15:51;9.60;99.90
51793;DHT22;37850;53.178;6.376;2024-01-30T11:18:29;10.00;99.90
51793;DHT22;37850;53.178;6.376;2024-01-30T11:20:59;9.60;99.90
51793;DHT22;37850;53.178;6.376;2024-01-30T11:23:27;9.60;99.90
51793;DHT22;37850;53.178;6.376;2024-01-30T11:25:53;9.60;99.90
51793;DHT22;37850;53.178;6.376;2024-01-30T11:28:21;9.70;99.90
51793;DHT22;37850;53.178;6.376;2024-01-30T11:30:47;9.60;99.90
51793;DHT22;37850;53.178;6.376;2024-01-30T11:33:29;9.60;99.90
51793;DHT22;37850;53.178;6.376;2024-01-30T11:35:57;9.60;99.90
51793;DHT22;37850;53.178;6.376;2024-01-30T11:38:28;9.60;99.90
51793;DHT22;37850;53.178;6.376;2024-01-30T11:40:55;9.60;99.90
51793;DHT22;37850;53.178;6.376;2024-01-30T11:43:22;9.60;99.90
51793;DHT22;37850;53.178;6.376;2024-01-30T11:45:49;9.60;99.90
51793;DHT22;37850;53.178;6.376;2024-01-30T11:48:14;10.10;99.90
51793;DHT22;37850;53.178;6.376;2024-01-30T11:50:41;9.60;99.90
51793;DHT22;37850;53.178;6.376;2024-01-30T11:53:06;9.60;99.90
51793;DHT22;37850;53.178;6.376;2024-01-30T11:55:33;9.60;99.90
51793;DHT22;37850;53.178;6.376;2024-01-30T11:58:00;9.60;99.90
51793;DHT22;37850;53.178;6.376;2024-01-30T12:00:26;9.50;99.90
51793;DHT22;37850;53.178;6.376;2024-01-30T12:02:52;9.50;99.90
51793;DHT22;37850;53.178;6.376;2024-01-30T12:05:24;9.50;99.90
51793;DHT22;37850;53.178;6.376;2024-01-30T12:07:51;9.40;99.90
51793;DHT22;37850;53.178;6.376;2024-01-30T12:10:17;9.40;99.90
51793;DHT22;37850;53.178;6.376;2024-01-30T12:12:47;9.40;99.90
51793;DHT22;37850;53.178;6.376;2024-01-30T12:15:14;9.40;99.90
51793;DHT22;37850;53.178;6.376;2024-01-30T12:17:40;9.40;99.90
51793;DHT22;37850;53.178;6.376;2024-01-30T12:22:45;9.40;99.90
51793;DHT22;37850;53.178;6.376;2024-01-30T12:25:21;9.40;99.90
51793;DHT22;37850;53.178;6.376;2024-01-30T12:27:50;9.40;99.90
51793;DHT22;37850;53.178;6.376;2024-01-30T12:30:17;9.40;99.90
51793;DHT22;37850;53.178;6.376;2024-01-30T12:32:45;9.40;99.90
51793;DHT22;37850;53.178;6.376;2024-01-30T12:35:12;9.40;99.90
51793;DHT22;37850;53.178;6.376;2024-01-30T12:37:38;9.40;99.90
51793;DHT22;37850;53.178;6.376;2024-01-30T12:40:05;9.40;99.90
51793;DHT22;37850;53.178;6.376;2024-01-30T12:42:35;9.40;99.90
51793;DHT22;37850;53.178;6.376;2024-01-30T12:45:03;9.30;99.90
51793;DHT22;37850;53.178;6.376;2024-01-30T12:47:29;9.30;99.90
51793;DHT22;37850;53.178;6.376;2024-01-30T12:49:55;9.40;99.90
51793;DHT22;37850;53.178;6.376;2024-01-30T12:52:21;9.40;99.90
51793;DHT22;37850;53.178;6.376;2024-01-30T12:54:48;9.40;99.90
51793;DHT22;37850;53.178;6.376;2024-01-30T12:57:14;9.40;99.90
51793;DHT22;37850;53.178;6.376;2024-01-30T12:59:40;9.40;99.90
51793;DHT22;37850;53.178;6.376;2024-01-30T13:02:06;9.40;99.90
51793;DHT22;37850;53.178;6.376;2024-01-30T13:04:32;9.40;99.90
51793;DHT22;37850;53.178;6.376;2024-01-30T13:06:58;9.40;99.90
51793;DHT22;37850;53.178;6.376;2024-01-30T13:09:26;9.40;99.90
51793;DHT22;37850;53.178;6.376;2024-01-30T13:11:52;9.50;99.90
51793;DHT22;37850;53.178;6.376;2024-01-30T13:14:18;9.50;99.90
51793;DHT22;37850;53.178;6.376;2024-01-30T13:16:44;9.50;99.90
51793;DHT22;37850;53.178;6.376;2024-01-30T13:19:11;9.50;99.90
51793;DHT22;37850;53.178;6.376;2024-01-30T13:21:37;9.40;99.90
51793;DHT22;37850;53.178;6.376;2024-01-30T13:24:03;9.40;99.90
51793;DHT22;37850;53.178;6.376;2024-01-30T13:26:29;9.40;99.90
51793;DHT22;37850;53.178;6.376;2024-01-30T13:28:56;9.40;99.90
51793;DHT22;37850;53.178;6.376;2024-01-30T13:31:22;9.40;99.90
51793;DHT22;37850;53.178;6.376;2024-01-30T13:33:48;9.40;99.90
51793;DHT22;37850;53.178;6.376;2024-01-30T13:36:14;9.40;99.90
51793;DHT22;37850;53.178;6.376;2024-01-30T13:38:40;9.30;99.90
51793;DHT22;37850;53.178;6.376;2024-01-30T13:41:06;9.40;99.90
51793;DHT22;37850;53.178;6.376;2024-01-30T13:43:31;9.40;99.90
51793;DHT22;37850;53.178;6.376;2024-01-30T13:45:57;9.40;99.90
51793;DHT22;37850;53.178;6.376;2024-01-30T13:48:23;9.30;99.90
51793;DHT22;37850;53.178;6.376;2024-01-30T13:50:49;9.30;99.90
51793;DHT22;37850;53.178;6.376;2024-01-30T13:53:15;9.30;99.90
51793;DHT22;37850;53.178;6.376;2024-01-30T13:55:41;9.30;99.90
51793;DHT22;37850;53.178;6.376;2024-01-30T13:58:07;9.30;99.90
51793;DHT22;37850;53.178;6.376;2024-01-30T14:00:33;9.30;99.90
51793;DHT22;37850;53.178;6.376;2024-01-30T14:02:59;9.30;99.90
51793;DHT22;37850;53.178;6.376;2024-01-30T14:05:26;9.30;99.90
51793;DHT22;37850;53.178;6.376;2024-01-30T14:07:53;9.30;99.90
51793;DHT22;37850;53.178;6.376;2024-01-30T14:10:19;9.30;99.90
51793;DHT22;37850;53.178;6.376;2024-01-30T14:12:45;9.20;99.90
51793;DHT22;37850;53.178;6.376;2024-01-30T14:15:14;9.20;99.90
51793;DHT22;37850;53.178;6.376;2024-01-30T14:17:48;9.20;99.90
51793;DHT22;37850;53.178;6.376;2024-01-30T14:20:15;9.20;99.90
51793;DHT22;37850;53.178;6.376;2024-01-30T14:22:44;9.10;99.90
51793;DHT22;37850;53.178;6.376;2024-01-30T14:25:10;9.10;99.90
51793;DHT22;37850;53.178;6.376;2024-01-30T14:27:36;9.10;99.90
51793;DHT22;37850;53.178;6.376;2024-01-30T14:30:02;9.00;99.90
51793;DHT22;37850;53.178;6.376;2024-01-30T14:32:29;9.00;99.90
51793;DHT22;37850;53.178;6.376;2024-01-30T14:34:54;8.90;99.90
51793;DHT22;37850;53.178;6.376;2024-01-30T14:37:21;9.00;99.90
51793;DHT22;37850;53.178;6.376;2024-01-30T14:39:47;8.90;99.90
51793;DHT22;37850;53.178;6.376;2024-01-30T14:42:14;8.90;99.90
51793;DHT22;37850;53.178;6.376;2024-01-30T14:44:40;8.90;99.90
51793;DHT22;37850;53.178;6.376;2024-01-30T14:47:06;8.90;99.90
51793;DHT22;37850;53.178;6.376;2024-01-30T14:49:33;8.80;99.90
51793;DHT22;37850;53.178;6.376;2024-01-30T14:51:59;8.80;99.90
51793;DHT22;37850;53.178;6.376;2024-01-30T14:54:26;8.80;99.90
51793;DHT22;37850;53.178;6.376;2024-01-30T14:56:53;8.90;99.90
51793;DHT22;37850;53.178;6.376;2024-01-30T14:59:18;8.80;99.90
51793;DHT22;37850;53.178;6.376;2024-01-30T15:01:44;8.80;99.90
51793;DHT22;37850;53.178;6.376;2024-01-30T15:04:10;8.70;99.90
51793;DHT22;37850;53.178;6.376;2024-01-30T15:06:36;8.70;99.90
51793;DHT22;37850;53.178;6.376;2024-01-30T15:09:02;8.70;99.90
51793;DHT22;37850;53.178;6.376;2024-01-30T15:11:28;8.70;99.90
51793;DHT22;37850;53.178;6.376;2024-01-30T15:13:54;8.80;99.90
51793;DHT22;37850;53.178;6.376;2024-01-30T15:16:20;8.70;99.90
51793;DHT22;37850;53.178;6.376;2024-01-30T15:18:46;8.70;99.90
51793;DHT22;37850;53.178;6.376;2024-01-30T15:21:12;8.70;99.90
51793;DHT22;37850;53.178;6.376;2024-01-30T15:23:38;8.60;99.90
51793;DHT22;37850;53.178;6.376;2024-01-30T15:26:04;8.60;99.90
51793;DHT22;37850;53.178;6.376;2024-01-30T15:28:37;8.60;99.90
51793;DHT22;37850;53.178;6.376;2024-01-30T15:31:03;8.60;99.90
51793;DHT22;37850;53.178;6.376;2024-01-30T15:33:29;8.60;99.90
51793;DHT22;37850;53.178;6.376;2024-01-30T15:35:56;8.60;99.90
51793;DHT22;37850;53.178;6.376;2024-01-30T15:38:22;8.50;99.90
51793;DHT22;37850;53.178;6.376;2024-01-30T15:40:48;8.50;99.90
51793;DHT22;37850;53.178;6.376;2024-01-30T15:43:14;8.50;99.90
51793;DHT22;37850;53.178;6.376;2024-01-30T15:45:39;8.80;99.90